KEYO2: Keystone Lake

Data processed at Fri Dec 08 2017 23:03


All information presented herein is the property of the government of the United States of America and may be revised or deleted at any time without prior notice.
Dissemination of this information without the expressed written consent of the Public Affairs Office, Tulsa District U.S. Army Corps of Engineers is strictly prohibited.
These data are gathered electronically and, as presented, have not undergone any form of quality control. These data are not guaranteed to be valid or correct.
Go to home page.
Go to station list.

Upstream stations:

Downstream station:
Previous Day
Next Day
Current Day
    
SHEF ID:       KEYO2     Keystone Lake
STATION TYPE:  Reservoir
Normal Pool:  Bottom =   706.00, Top =   723.00

               PRECIP ELEVATION   STORAGE   TW-ELEV    INFLOW   RELEASE  AIR-TEMP  WIND-DIRWIND-SPEED REL-HUMID SOLAR-RAD   VOLTAGE  BAT-LOAD
                   in        ft     ac-ft        ft       cfs       cfs         F       deg       mph         %      W/m2      volt      volt
              Ccp-Rev   Ccp-Rev   Ccp-Rev   Ccp-Rev  Regi-Rev  Regi-Rev   Ccp-Rev   Ccp-Rev   Ccp-Rev   Ccp-Rev   Ccp-Rev   Ccp-Rev   Ccp-Rev
(US/Central)
12/06 00:00      0.00    722.58    424956    637.82        50         0     38.71    273.40      5.78     44.83      0.00     13.69     13.30
12/06 01:00      0.00    722.58    424956    637.74        34         0     38.50    275.80      8.65     46.17      0.00     13.69     13.30
12/06 02:00      0.00    722.60    425288    637.68        17         0     39.79    275.50      8.21     42.01      0.00     13.69     13.30
12/06 03:00      0.00    722.58    424956    637.65         0         0     36.61    266.70      8.74     45.00      0.00     13.69     13.30
12/06 04:00      0.00    722.60    425288    637.63         0         0     37.06    273.00      8.03     48.00      0.00     13.69     12.07
12/06 05:00      0.00    722.60    425288    637.62       275         0     38.05    282.10      8.30     46.84      0.00     13.69     13.30
12/06 06:00      0.00    722.55    424459    639.26       283       800     36.18    281.00      8.26     51.36      1.00     13.69     13.30
12/06 07:00      0.00    722.57    424791    642.52       290     11800     35.62    280.30     10.14     57.28      0.00     13.69     13.30
12/06 08:00      0.00    722.50    423630    642.68       298     11700     35.42    280.40      9.42     59.36     24.00     13.69     13.30
12/06 09:00      0.00    722.44    422635    642.75       302     11800     37.06    285.80      9.19     59.00    220.00     13.69     13.30
12/06 10:00      0.00    722.40    421972    642.06        27     11800     39.36    292.00      6.49     51.79    399.00     13.68     13.30
12/06 11:00      0.00    722.40    421972    639.36        19       200     43.11    295.80      5.24     51.11    534.00     13.69     13.30
12/06 12:00      0.00    722.38    421640    638.37       128         0     46.96    285.20      5.63     44.52    607.00     13.69     13.30
12/06 13:00      0.00    722.40    421972    637.98       120         0     50.14    275.80      5.19     40.98    491.00     13.69     13.30
12/06 14:00      0.00    722.43    422469    637.82       116         0     51.67    291.00      8.47     35.42     40.00     13.69     13.30
12/06 15:00      0.00    722.43    422469    637.74       116         0     52.79    291.20     11.66     34.87    127.00     13.69     13.30
12/06 16:00      0.00    722.43    422469    637.68       116         0     53.10    291.40     13.40     39.33    198.00     13.69     13.30
12/06 17:00      0.00    722.37    421475    639.09         0       400     52.45    296.30     14.76     37.98     77.00     13.69     13.30
12/06 18:00      0.00    722.37    421475    642.51         0     11800     50.02    298.60     16.15     38.35      3.00     13.69     13.30
12/06 19:00      0.00    722.28    419982    642.71         1     11800     47.93    303.80     10.28     45.13      1.00     13.68     13.30
12/06 20:00      0.00    722.25    419485    642.05         1     11600     46.29    313.30      8.19     37.07      0.00     13.69     13.30
12/06 21:00      0.00    722.24    419319    639.36         1       400     44.42    305.50      3.22     51.97      0.00     13.69     13.30
12/06 22:00      0.00    722.25    419485    638.38        82         0     42.44    276.60      4.57     56.91      0.00     13.69     13.30
12/06 23:00      0.00    722.25    419485    637.98        82         0     41.88    283.80      5.49     58.56      0.00     13.70     13.30